createdAt,value
2023-05-14T00:01:02.426Z,74.43
2023-05-14T00:03:33.223Z,74.33
2023-05-14T00:06:04.347Z,74.52
2023-05-14T00:08:34.601Z,74.63
2023-05-14T00:11:04.655Z,74.64
2023-05-14T00:13:35.249Z,75.09
2023-05-14T00:16:06.316Z,75.10
2023-05-14T00:18:37.777Z,75.10
2023-05-14T00:21:08.008Z,75.32
2023-05-14T00:23:39.086Z,74.92
2023-05-14T00:26:10.137Z,75.65
2023-05-14T00:28:41.717Z,76.05
2023-05-14T00:31:12.828Z,76.10
2023-05-14T00:33:43.862Z,76.24
2023-05-14T00:36:14.916Z,76.22
2023-05-14T00:38:46.431Z,76.13
2023-05-14T00:41:17.281Z,76.34
2023-05-14T00:43:48.090Z,76.03
2023-05-14T00:46:19.571Z,76.16
2023-05-14T00:48:49.973Z,76.55
2023-05-14T00:51:21.664Z,76.82
2023-05-14T00:53:52.980Z,76.78
2023-05-14T00:56:24.675Z,76.76
2023-05-14T00:58:55.641Z,76.97
2023-05-14T01:01:25.858Z,77.03
2023-05-14T01:03:59.896Z,77.18
2023-05-14T01:06:42.947Z,76.99
2023-05-14T01:09:20.192Z,77.09
2023-05-14T01:12:10.310Z,76.96
2023-05-14T01:15:02.578Z,76.94
2023-05-14T01:17:36.400Z,76.74
2023-05-14T01:20:08.532Z,76.22
2023-05-14T01:22:40.047Z,76.15
2023-05-14T01:25:10.638Z,75.95
2023-05-14T01:27:54.265Z,75.54
2023-05-14T01:30:40.122Z,75.66
2023-05-14T01:33:19.570Z,75.58
2023-05-14T01:35:51.322Z,75.49
2023-05-14T01:38:24.637Z,75.44
2023-05-14T01:40:56.098Z,75.44
2023-05-14T01:43:26.444Z,75.32
2023-05-14T01:45:57.857Z,75.40
2023-05-14T01:48:29.730Z,75.32
2023-05-14T01:51:00.724Z,74.99
2023-05-14T01:53:31.550Z,75.41
2023-05-14T01:56:02.955Z,75.38
2023-05-14T01:58:33.171Z,75.72
2023-05-14T02:01:03.435Z,75.69
2023-05-14T02:03:34.170Z,75.84
2023-05-14T02:06:04.262Z,75.80
2023-05-14T02:08:34.422Z,76.13
2023-05-14T02:11:07.371Z,76.32
2023-05-14T02:13:37.983Z,75.99
2023-05-14T02:16:08.543Z,76.07
2023-05-14T02:18:38.671Z,76.20
2023-05-14T02:21:09.677Z,75.92
2023-05-14T02:23:41.913Z,76.09
2023-05-14T02:26:13.712Z,76.13
2023-05-14T02:28:44.944Z,76.03
2023-05-14T02:31:16.927Z,75.83
2023-05-14T02:33:47.400Z,75.56
2023-05-14T02:36:17.565Z,75.53
2023-05-14T02:38:48.698Z,75.33
2023-05-14T02:41:20.049Z,75.11
2023-05-14T02:43:51.856Z,75.06
2023-05-14T02:46:23.857Z,75.24
2023-05-14T02:48:55.312Z,75.28
2023-05-14T02:51:26.169Z,75.27
2023-05-14T02:53:57.971Z,75.13
2023-05-14T02:56:28.232Z,75.43
2023-05-14T02:58:59.159Z,75.86
2023-05-14T03:01:30.060Z,75.78
2023-05-14T03:04:01.123Z,75.58
2023-05-14T03:06:32.608Z,75.62
2023-05-14T03:09:02.677Z,75.54
2023-05-14T03:11:32.725Z,75.60
2023-05-14T03:14:04.300Z,75.87
2023-05-14T03:16:37.728Z,75.91
2023-05-14T03:19:08.788Z,75.90
2023-05-14T03:21:40.081Z,76.06
2023-05-14T03:24:10.413Z,75.90
2023-05-14T03:26:40.692Z,75.97
2023-05-14T03:29:12.813Z,75.94
2023-05-14T03:31:44.442Z,75.99
2023-05-14T03:34:14.962Z,76.18
2023-05-14T03:36:46.333Z,75.75
2023-05-14T03:39:22.614Z,75.44
2023-05-14T03:41:54.164Z,74.94
2023-05-14T03:44:24.623Z,74.85
2023-05-14T03:46:55.427Z,74.65
2023-05-14T03:49:28.361Z,74.42
2023-05-14T03:52:01.601Z,74.39
2023-05-14T03:54:33.013Z,74.60
2023-05-14T03:57:04.203Z,74.35
2023-05-14T03:59:34.716Z,74.46
2023-05-14T04:02:04.879Z,74.65
2023-05-14T04:04:35.927Z,74.61
2023-05-14T04:07:08.240Z,74.56
2023-05-14T04:09:38.496Z,74.80
2023-05-14T04:12:09.858Z,74.88
2023-05-14T04:14:41.103Z,74.60
2023-05-14T04:17:11.311Z,74.32
2023-05-14T04:19:42.552Z,74.14
2023-05-14T04:22:13.785Z,73.98
2023-05-14T04:24:43.768Z,73.82
2023-05-14T04:27:15.510Z,73.65
2023-05-14T04:29:45.658Z,73.54
2023-05-14T04:32:17.425Z,73.52
2023-05-14T04:34:49.630Z,73.70
2023-05-14T04:37:20.621Z,73.52
2023-05-14T04:39:51.452Z,73.60
2023-05-14T04:42:22.271Z,73.37
2023-05-14T04:44:53.426Z,73.34
2023-05-14T04:47:23.974Z,73.10
2023-05-14T04:49:54.380Z,72.89
2023-05-14T04:52:24.412Z,72.90
2023-05-14T04:54:54.709Z,72.99
2023-05-14T04:57:24.720Z,72.61
2023-05-14T04:59:54.779Z,72.51
2023-05-14T05:02:25.001Z,72.42
2023-05-14T05:04:55.216Z,72.18
2023-05-14T05:07:25.238Z,72.28
2023-05-14T05:09:55.812Z,72.03
2023-05-14T05:12:27.022Z,72.06
2023-05-14T05:14:58.869Z,71.95
2023-05-14T05:17:31.461Z,71.94
2023-05-14T05:20:02.095Z,71.64
2023-05-14T05:22:32.147Z,71.94
2023-05-14T05:25:02.919Z,71.93
2023-05-14T05:27:33.842Z,71.81
2023-05-14T05:30:05.519Z,71.67
2023-05-14T05:32:36.894Z,71.67
2023-05-14T05:35:09.429Z,71.64
2023-05-14T05:37:40.537Z,71.66
2023-05-14T05:40:13.332Z,71.73
2023-05-14T05:42:44.441Z,71.84
2023-05-14T05:45:14.595Z,71.69
2023-05-14T05:47:44.970Z,71.55
2023-05-14T05:50:18.817Z,71.45
2023-05-14T05:52:50.808Z,71.64
2023-05-14T05:55:21.821Z,71.68
2023-05-14T05:57:54.175Z,71.94
2023-05-14T06:00:26.154Z,72.26
2023-05-14T06:02:58.240Z,72.30
2023-05-14T06:05:29.494Z,72.38
2023-05-14T06:08:01.245Z,72.26
2023-05-14T06:10:31.699Z,72.68
2023-05-14T06:13:01.857Z,72.59
2023-05-14T06:15:33.459Z,72.72
2023-05-14T06:18:04.148Z,72.57
2023-05-14T06:20:35.764Z,72.76
2023-05-14T06:23:07.908Z,72.86
2023-05-14T06:25:39.077Z,72.50
2023-05-14T06:28:11.423Z,72.98
2023-05-14T06:30:43.321Z,72.71
2023-05-14T06:33:14.875Z,72.36
2023-05-14T06:35:45.649Z,72.27
2023-05-14T06:38:16.397Z,72.17
2023-05-14T06:40:48.749Z,72.11
2023-05-14T06:43:19.629Z,71.86
2023-05-14T06:45:54.143Z,71.84
2023-05-14T06:48:25.094Z,72.28
2023-05-14T06:50:56.415Z,72.88
2023-05-14T06:53:27.183Z,73.87
2023-05-14T06:55:59.132Z,72.55
2023-05-14T06:58:29.969Z,72.87
2023-05-14T07:01:01.400Z,73.82
2023-05-14T07:03:31.936Z,73.58
2023-05-14T07:06:03.152Z,72.85
2023-05-14T07:08:34.225Z,73.59
2023-05-14T07:11:04.393Z,73.24
2023-05-14T07:13:35.763Z,73.15
2023-05-14T07:16:06.789Z,72.97
2023-05-14T07:18:38.088Z,72.53
2023-05-14T07:21:09.222Z,72.44
2023-05-14T07:23:40.427Z,72.16
2023-05-14T07:26:11.604Z,71.33
2023-05-14T07:28:41.880Z,71.06
2023-05-14T07:31:13.501Z,70.88
2023-05-14T07:33:43.700Z,70.77
2023-05-14T07:39:33.784Z,69.82
2023-05-14T07:42:04.338Z,69.56
2023-05-14T07:44:34.413Z,69.49
2023-05-14T07:47:06.240Z,69.18
2023-05-14T07:49:37.465Z,68.84
2023-05-14T07:52:07.846Z,68.25
2023-05-14T07:54:39.097Z,67.74
2023-05-14T07:57:10.129Z,67.26
2023-05-14T07:59:41.263Z,67.03
2023-05-14T08:02:14.486Z,66.93
2023-05-14T08:04:45.647Z,66.29
2023-05-14T08:07:15.642Z,66.34
2023-05-14T08:09:46.581Z,66.24
2023-05-14T08:12:17.460Z,66.48
2023-05-14T08:14:48.044Z,66.56
2023-05-14T08:17:18.360Z,66.67
2023-05-14T08:19:48.385Z,66.84
2023-05-14T08:22:20.194Z,66.93
2023-05-14T08:24:51.197Z,67.08
2023-05-14T08:27:21.588Z,67.08
2023-05-14T08:29:52.494Z,67.13
2023-05-14T08:32:24.250Z,66.65
2023-05-14T08:34:54.574Z,66.05
2023-05-14T08:37:25.432Z,65.72
2023-05-14T08:39:57.021Z,66.06
2023-05-14T08:42:28.398Z,66.36
2023-05-14T08:45:08.050Z,66.27
2023-05-14T08:47:39.820Z,66.45
2023-05-14T08:50:12.854Z,66.48
2023-05-14T08:52:44.473Z,66.48
2023-05-14T08:55:15.471Z,66.66
2023-05-14T08:57:46.877Z,66.65
2023-05-14T09:00:17.638Z,66.79
2023-05-14T09:02:50.211Z,66.90
2023-05-14T09:05:22.829Z,66.83
2023-05-14T09:07:54.111Z,67.22
2023-05-14T09:10:25.760Z,66.63
2023-05-14T09:12:56.900Z,66.46
2023-05-14T09:15:29.706Z,66.61
2023-05-14T09:18:01.370Z,66.85
2023-05-14T09:20:33.113Z,66.64
2023-05-14T09:23:04.622Z,66.76
2023-05-14T09:25:36.157Z,66.93
2023-05-14T09:28:11.246Z,67.06
2023-05-14T09:30:41.408Z,67.36
2023-05-14T09:33:11.788Z,67.08
2023-05-14T09:35:42.889Z,66.94
2023-05-14T09:38:13.429Z,67.04
2023-05-14T09:40:44.029Z,66.82
2023-05-14T09:43:16.213Z,67.07
2023-05-14T09:45:47.426Z,67.20
2023-05-14T09:48:18.788Z,67.30
2023-05-14T09:50:49.561Z,67.05
2023-05-14T09:53:20.174Z,67.10
2023-05-14T09:55:50.798Z,67.06
2023-05-14T09:58:20.930Z,66.95
2023-05-14T10:00:52.403Z,66.92
2023-05-14T10:03:25.109Z,67.01
2023-05-14T10:05:57.196Z,66.85
2023-05-14T10:08:37.276Z,66.67
2023-05-14T10:11:16.341Z,66.54
2023-05-14T10:13:54.837Z,66.32
2023-05-14T10:16:33.490Z,66.05
2023-05-14T10:19:08.500Z,65.91
2023-05-14T10:21:42.834Z,65.88
2023-05-14T10:24:14.382Z,65.76
2023-05-14T10:26:46.479Z,65.21
2023-05-14T10:29:17.717Z,64.96
2023-05-14T10:31:56.757Z,61.71
2023-05-14T10:34:36.004Z,55.38
2023-05-14T10:37:08.653Z,57.99
2023-05-14T10:40:02.039Z,60.58
2023-05-14T10:42:44.850Z,59.71
2023-05-14T10:45:19.447Z,56.34
2023-05-14T10:47:52.469Z,56.94
2023-05-14T10:50:25.109Z,49.98
2023-05-14T10:52:56.773Z,48.73
2023-05-14T10:55:28.347Z,54.00
2023-05-14T10:58:03.702Z,54.64
2023-05-14T11:00:38.459Z,55.52
2023-05-14T11:03:10.062Z,56.87
2023-05-14T11:05:45.177Z,56.51
2023-05-14T11:08:16.071Z,55.76
2023-05-14T11:10:49.140Z,52.96
2023-05-14T11:13:22.304Z,50.58
2023-05-14T11:15:52.915Z,51.52
2023-05-14T11:18:30.895Z,52.39
2023-05-14T11:21:02.911Z,54.39
2023-05-14T11:23:34.197Z,55.04
2023-05-14T11:26:05.233Z,55.24
2023-05-14T11:28:36.922Z,55.22
2023-05-14T11:31:07.787Z,54.60
2023-05-14T11:33:37.975Z,54.34
2023-05-14T11:36:08.490Z,53.56
2023-05-14T11:38:52.918Z,53.98
2023-05-14T11:41:24.985Z,53.67
2023-05-14T11:43:56.224Z,52.16
2023-05-14T11:46:29.178Z,53.05
2023-05-14T11:48:59.379Z,52.15
2023-05-14T11:51:30.706Z,51.91
2023-05-14T11:54:01.877Z,51.73
2023-05-14T11:56:32.836Z,50.53
2023-05-14T11:59:02.973Z,51.00
2023-05-14T12:01:41.984Z,50.37
2023-05-14T12:04:12.947Z,49.03
2023-05-14T12:06:43.409Z,49.78
2023-05-14T12:09:18.400Z,48.45
2023-05-14T12:11:50.133Z,49.39
2023-05-14T12:14:27.349Z,49.31
2023-05-14T12:16:58.500Z,48.89
2023-05-14T12:19:29.306Z,47.60
2023-05-14T12:22:03.411Z,49.17
2023-05-14T12:24:35.433Z,48.25
2023-05-14T12:27:08.505Z,46.59
2023-05-14T12:29:41.407Z,46.08
2023-05-14T12:32:13.234Z,46.66
2023-05-14T12:34:44.658Z,46.37
2023-05-14T12:37:15.557Z,45.88
2023-05-14T12:39:46.611Z,47.80
2023-05-14T12:42:18.690Z,46.49
2023-05-14T12:44:50.080Z,46.35
2023-05-14T12:47:22.389Z,44.82
2023-05-14T12:49:52.667Z,44.05
2023-05-14T12:52:36.869Z,45.55
2023-05-14T12:55:11.694Z,45.15
2023-05-14T12:57:42.916Z,44.61
2023-05-14T13:00:14.985Z,44.14
2023-05-14T13:02:45.463Z,44.95
2023-05-14T13:05:16.565Z,45.77
2023-05-14T13:07:46.984Z,43.88
2023-05-14T13:10:19.677Z,44.37
2023-05-14T13:12:51.040Z,43.73
2023-05-14T13:15:22.206Z,42.17
2023-05-14T13:17:53.853Z,41.88
2023-05-14T13:20:25.692Z,43.17
2023-05-14T13:22:57.696Z,41.49
2023-05-14T13:25:30.099Z,42.25
2023-05-14T13:28:01.307Z,39.68
2023-05-14T13:30:32.570Z,41.21
2023-05-14T13:33:04.181Z,40.86
2023-05-14T13:35:37.219Z,42.03
2023-05-14T13:38:07.655Z,42.61
2023-05-14T13:40:37.674Z,43.95
2023-05-14T13:43:09.812Z,42.65
2023-05-14T13:45:42.589Z,43.04
2023-05-14T13:48:14.253Z,42.07
2023-05-14T13:50:45.549Z,41.20
2023-05-14T13:53:19.867Z,41.88
2023-05-14T13:55:51.326Z,41.81
2023-05-14T13:58:22.506Z,40.73
2023-05-14T14:00:54.438Z,42.61
2023-05-14T14:03:25.120Z,40.69
2023-05-14T14:05:55.390Z,41.47
2023-05-14T14:08:26.796Z,40.47
2023-05-14T14:10:57.808Z,40.05
2023-05-14T14:13:28.862Z,41.18
2023-05-14T14:16:00.282Z,39.75
2023-05-14T14:18:31.865Z,41.25
2023-05-14T14:21:03.046Z,40.23
2023-05-14T14:23:34.226Z,39.80
2023-05-14T14:26:05.170Z,41.85
2023-05-14T14:28:36.169Z,40.93
2023-05-14T14:31:07.165Z,40.03
2023-05-14T14:33:38.244Z,41.06
2023-05-14T14:36:09.008Z,41.43
2023-05-14T14:38:45.077Z,41.33
2023-05-14T14:41:16.155Z,41.14
2023-05-14T14:43:46.212Z,40.09
2023-05-14T14:46:17.006Z,40.52
2023-05-14T14:48:47.891Z,39.83
2023-05-14T14:51:19.353Z,40.44
2023-05-14T14:53:50.941Z,41.20
2023-05-14T14:56:21.237Z,39.75
2023-05-14T14:58:51.299Z,40.31
2023-05-14T15:01:22.713Z,41.27
2023-05-14T15:03:53.410Z,41.59
2023-05-14T15:06:25.828Z,40.94
2023-05-14T15:08:56.293Z,40.19
2023-05-14T15:11:26.782Z,40.34
2023-05-14T15:13:58.544Z,41.33
2023-05-14T15:16:30.327Z,40.58
2023-05-14T15:19:02.228Z,42.75
2023-05-14T15:21:34.525Z,40.84
2023-05-14T15:24:09.202Z,40.95
2023-05-14T15:26:40.830Z,40.92
2023-05-14T15:29:11.991Z,41.28
2023-05-14T15:31:44.172Z,41.72
2023-05-14T15:34:15.370Z,42.12
2023-05-14T15:39:33.827Z,40.23
2023-05-14T15:42:05.171Z,41.26
2023-05-14T15:44:36.720Z,41.47
2023-05-14T15:47:09.089Z,41.01
2023-05-14T15:49:39.875Z,41.75
2023-05-14T15:52:10.950Z,41.88
2023-05-14T15:54:42.366Z,41.38
2023-05-14T15:57:12.958Z,41.87
2023-05-14T15:59:43.795Z,40.61
2023-05-14T16:02:15.924Z,41.11
2023-05-14T16:04:50.893Z,41.69
2023-05-14T16:07:21.725Z,41.70
2023-05-14T16:09:53.080Z,41.35
2023-05-14T16:12:23.544Z,41.11
2023-05-14T16:14:54.344Z,41.49
2023-05-14T16:17:25.665Z,41.42
2023-05-14T16:19:56.845Z,41.59
2023-05-14T16:22:28.006Z,41.83
2023-05-14T16:25:00.673Z,42.12
2023-05-14T16:27:33.970Z,41.81
2023-05-14T16:30:04.377Z,41.65
2023-05-14T16:32:36.887Z,42.20
2023-05-14T16:35:07.791Z,42.42
2023-05-14T16:37:37.889Z,40.97
2023-05-14T16:40:11.646Z,41.65
2023-05-14T16:42:41.930Z,41.65
2023-05-14T16:45:12.986Z,43.02
2023-05-14T16:47:45.048Z,42.35
2023-05-14T16:50:18.097Z,41.19
2023-05-14T16:52:48.269Z,41.99
2023-05-14T16:55:18.410Z,41.86
2023-05-14T16:57:50.222Z,42.49
2023-05-14T17:00:21.153Z,41.84
2023-05-14T17:02:53.799Z,42.65
2023-05-14T17:05:24.440Z,42.23
2023-05-14T17:07:55.444Z,42.99
2023-05-14T17:10:28.990Z,43.40
2023-05-14T17:12:59.935Z,42.40
2023-05-14T17:15:30.772Z,43.40
2023-05-14T17:18:01.728Z,43.36
2023-05-14T17:20:32.450Z,42.31
2023-05-14T17:23:03.898Z,43.54
2023-05-14T17:25:35.007Z,44.27
2023-05-14T17:28:06.426Z,43.34
2023-05-14T17:30:36.807Z,43.75
2023-05-14T17:33:06.920Z,43.20
2023-05-14T17:35:37.681Z,43.39
2023-05-14T17:38:08.987Z,43.27
2023-05-14T17:40:40.933Z,43.97
2023-05-14T17:43:12.505Z,43.53
2023-05-14T17:45:53.888Z,43.46
2023-05-14T17:48:26.320Z,43.33
2023-05-14T17:50:56.653Z,44.14
2023-05-14T17:53:26.689Z,44.02
2023-05-14T17:55:56.880Z,42.27
2023-05-14T17:58:30.129Z,44.18
2023-05-14T18:01:00.321Z,43.83
2023-05-14T18:03:31.265Z,43.85
2023-05-14T18:06:01.465Z,44.09
2023-05-14T18:08:31.601Z,43.97
2023-05-14T18:11:02.922Z,43.88
2023-05-14T18:13:34.199Z,43.85
2023-05-14T18:16:04.275Z,43.98
2023-05-14T18:18:34.749Z,44.88
2023-05-14T18:21:06.015Z,44.36
2023-05-14T18:23:37.213Z,44.34
2023-05-14T18:26:08.372Z,43.44
2023-05-14T18:28:39.404Z,43.97
2023-05-14T18:31:10.475Z,43.50
2023-05-14T18:33:41.434Z,44.03
2023-05-14T18:36:12.697Z,43.53
2023-05-14T18:38:43.696Z,44.04
2023-05-14T18:41:13.685Z,44.63
2023-05-14T18:43:44.131Z,44.30
2023-05-14T18:46:14.220Z,44.20
2023-05-14T18:48:44.501Z,44.10
2023-05-14T18:51:15.253Z,45.25
2023-05-14T18:53:46.356Z,45.17
2023-05-14T18:56:16.578Z,45.13
2023-05-14T18:58:47.608Z,46.17
2023-05-14T19:01:17.972Z,45.22
2023-05-14T19:03:49.387Z,46.66
2023-05-14T19:06:19.901Z,46.14
2023-05-14T19:08:50.035Z,47.66
2023-05-14T19:11:20.796Z,46.78
2023-05-14T19:13:51.927Z,47.60
2023-05-14T19:16:22.635Z,46.85
2023-05-14T19:18:53.365Z,47.09
2023-05-14T19:21:23.440Z,47.29
2023-05-14T19:23:54.125Z,47.92
2023-05-14T19:26:24.563Z,46.94
2023-05-14T19:29:00.529Z,47.32
2023-05-14T19:31:31.726Z,46.33
2023-05-14T19:34:03.406Z,47.09
2023-05-14T19:36:33.969Z,47.10
2023-05-14T19:39:05.207Z,48.36
2023-05-14T19:41:35.599Z,48.09
2023-05-14T19:44:05.675Z,48.08
2023-05-14T19:46:36.031Z,48.37
2023-05-14T19:49:07.534Z,48.58
2023-05-14T19:51:39.006Z,49.68
2023-05-14T19:54:10.544Z,49.43
2023-05-14T19:56:41.420Z,49.75
2023-05-14T19:59:12.512Z,50.16
2023-05-14T20:01:44.047Z,50.08
2023-05-14T20:04:15.457Z,50.41
2023-05-14T20:06:47.713Z,50.89
2023-05-14T20:09:19.134Z,50.98
2023-05-14T20:11:49.283Z,51.77
2023-05-14T20:14:19.469Z,51.51
2023-05-14T20:16:50.376Z,51.88
2023-05-14T20:19:23.102Z,52.16
2023-05-14T20:21:54.232Z,52.34
2023-05-14T20:24:25.618Z,52.61
2023-05-14T20:26:56.569Z,52.90
2023-05-14T20:29:27.164Z,53.51
2023-05-14T20:31:58.987Z,53.75
2023-05-14T20:34:30.538Z,54.43
2023-05-14T20:39:47.377Z,54.85
2023-05-14T20:42:18.837Z,55.31
2023-05-14T20:44:50.871Z,55.45
2023-05-14T20:47:24.775Z,56.08
2023-05-14T20:49:54.964Z,56.57
2023-05-14T20:52:25.854Z,57.33
2023-05-14T20:54:56.049Z,57.34
2023-05-14T20:57:27.289Z,57.37
2023-05-14T20:59:58.738Z,57.70
2023-05-14T21:02:29.092Z,57.63
2023-05-14T21:04:59.988Z,58.50
2023-05-14T21:07:31.537Z,58.07
2023-05-14T21:10:04.333Z,58.78
2023-05-14T21:12:34.844Z,59.03
2023-05-14T21:15:06.741Z,59.08
2023-05-14T21:17:38.114Z,58.81
2023-05-14T21:20:09.738Z,59.21
2023-05-14T21:22:39.788Z,59.02
2023-05-14T21:25:11.528Z,58.93
2023-05-14T21:27:42.397Z,59.29
2023-05-14T21:30:13.229Z,59.81
2023-05-14T21:32:44.365Z,60.01
2023-05-14T21:35:14.643Z,59.59
2023-05-14T21:37:44.812Z,59.79
2023-05-14T21:40:15.413Z,60.01
2023-05-14T21:42:45.658Z,60.05
2023-05-14T21:45:15.840Z,59.82
2023-05-14T21:47:45.906Z,59.73
2023-05-14T21:50:16.380Z,59.82
2023-05-14T21:52:46.373Z,60.19
2023-05-14T21:55:17.840Z,60.57
2023-05-14T21:57:48.244Z,60.52
2023-05-14T22:00:24.568Z,60.27
2023-05-14T22:02:56.708Z,60.29
2023-05-14T22:05:28.700Z,60.54
2023-05-14T22:07:59.766Z,60.95
2023-05-14T22:10:29.865Z,61.15
2023-05-14T22:13:03.493Z,61.24
2023-05-14T22:15:34.462Z,61.59
2023-05-14T22:18:05.665Z,61.78
2023-05-14T22:20:36.740Z,61.77
2023-05-14T22:23:07.030Z,62.18
2023-05-14T22:25:38.113Z,62.50
2023-05-14T22:28:08.949Z,62.98
2023-05-14T22:30:39.327Z,63.45
2023-05-14T22:33:10.272Z,63.69
2023-05-14T22:35:41.861Z,63.97
2023-05-14T22:38:12.766Z,63.89
2023-05-14T22:40:42.885Z,64.95
2023-05-14T22:43:14.149Z,64.77
2023-05-14T22:45:45.509Z,64.83
2023-05-14T22:48:17.139Z,65.07
2023-05-14T22:50:47.565Z,65.81
2023-05-14T22:53:18.330Z,65.57
2023-05-14T22:55:48.824Z,65.39
2023-05-14T22:58:20.396Z,65.40
2023-05-14T23:00:50.578Z,65.22
2023-05-14T23:03:21.433Z,64.99
2023-05-14T23:05:52.439Z,65.15
2023-05-14T23:08:23.825Z,65.12
2023-05-14T23:10:54.824Z,64.97
2023-05-14T23:13:26.211Z,64.92
2023-05-14T23:15:57.347Z,64.95
2023-05-14T23:18:28.236Z,65.39
2023-05-14T23:21:00.356Z,65.53
2023-05-14T23:23:31.256Z,65.48
2023-05-14T23:26:01.502Z,65.44
2023-05-14T23:28:32.824Z,65.32
2023-05-14T23:31:04.439Z,65.58
2023-05-14T23:33:34.681Z,65.45
2023-05-14T23:36:06.913Z,66.01
2023-05-14T23:38:38.631Z,66.09
2023-05-14T23:41:08.986Z,65.96
2023-05-14T23:43:39.823Z,66.29
2023-05-14T23:46:11.070Z,66.68
2023-05-14T23:48:42.119Z,67.05
2023-05-14T23:51:13.106Z,67.23
2023-05-14T23:53:43.266Z,66.73
2023-05-14T23:56:14.486Z,67.50
2023-05-14T23:58:44.821Z,67.43
